sensor_id;sensor_type;location;lat;lon;timestamp;temperature;humidity
13970;DHT22;7057;49.984;8.404;2022-11-20T00:01:22;4.10;99.90
13970;DHT22;7057;49.984;8.404;2022-11-20T00:03:51;4.10;99.90
13970;DHT22;7057;49.984;8.404;2022-11-20T00:06:19;4.10;99.90
13970;DHT22;7057;49.984;8.404;2022-11-20T00:08:47;4.20;99.90
13970;DHT22;7057;49.984;8.404;2022-11-20T00:11:16;3.90;99.90
13970;DHT22;7057;49.984;8.404;2022-11-20T00:13:43;3.90;99.90
13970;DHT22;7057;49.984;8.404;2022-11-20T00:16:13;3.80;99.90
13970;DHT22;7057;49.984;8.404;2022-11-20T00:18:41;4.40;99.90
13970;DHT22;7057;49.984;8.404;2022-11-20T00:21:11;4.00;99.90
13970;DHT22;7057;49.984;8.404;2022-11-20T00:23:38;3.80;99.90
13970;DHT22;7057;49.984;8.404;2022-11-20T00:26:08;3.80;99.90
13970;DHT22;7057;49.984;8.404;2022-11-20T00:28:35;3.90;99.90
13970;DHT22;7057;49.984;8.404;2022-11-20T00:31:03;3.80;99.90
13970;DHT22;7057;49.984;8.404;2022-11-20T00:33:33;3.80;99.90
13970;DHT22;7057;49.984;8.404;2022-11-20T00:36:01;3.90;99.90
13970;DHT22;7057;49.984;8.404;2022-11-20T00:38:29;3.90;99.90
13970;DHT22;7057;49.984;8.404;2022-11-20T00:40:57;3.90;99.90
13970;DHT22;7057;49.984;8.404;2022-11-20T00:43:25;4.00;99.90
13970;DHT22;7057;49.984;8.404;2022-11-20T00:45:57;3.90;99.90
13970;DHT22;7057;49.984;8.404;2022-11-20T00:48:24;3.80;99.90
13970;DHT22;7057;49.984;8.404;2022-11-20T00:50:53;3.80;99.90
13970;DHT22;7057;49.984;8.404;2022-11-20T00:53:20;3.80;99.90
13970;DHT22;7057;49.984;8.404;2022-11-20T00:55:54;3.70;99.90
13970;DHT22;7057;49.984;8.404;2022-11-20T00:58:22;3.80;99.90
13970;DHT22;7057;49.984;8.404;2022-11-20T01:00:50;3.80;99.90
13970;DHT22;7057;49.984;8.404;2022-11-20T01:03:17;3.90;99.90
13970;DHT22;7057;49.984;8.404;2022-11-20T01:05:44;4.00;99.90
13970;DHT22;7057;49.984;8.404;2022-11-20T01:08:13;4.00;99.90
13970;DHT22;7057;49.984;8.404;2022-11-20T01:10:40;3.90;99.90
13970;DHT22;7057;49.984;8.404;2022-11-20T01:13:07;4.10;99.90
13970;DHT22;7057;49.984;8.404;2022-11-20T01:15:52;4.20;99.90
13970;DHT22;7057;49.984;8.404;2022-11-20T01:18:19;3.60;99.90
13970;DHT22;7057;49.984;8.404;2022-11-20T01:20:46;3.90;99.90
13970;DHT22;7057;49.984;8.404;2022-11-20T01:23:15;4.00;99.90
13970;DHT22;7057;49.984;8.404;2022-11-20T01:25:42;3.90;99.90
13970;DHT22;7057;49.984;8.404;2022-11-20T01:28:09;4.00;99.90
13970;DHT22;7057;49.984;8.404;2022-11-20T01:30:36;3.90;99.90
13970;DHT22;7057;49.984;8.404;2022-11-20T01:33:04;4.00;99.90
13970;DHT22;7057;49.984;8.404;2022-11-20T01:35:31;4.00;99.90
13970;DHT22;7057;49.984;8.404;2022-11-20T01:37:58;4.30;99.90
13970;DHT22;7057;49.984;8.404;2022-11-20T01:40:26;4.20;99.90
13970;DHT22;7057;49.984;8.404;2022-11-20T01:43:06;4.30;99.90
13970;DHT22;7057;49.984;8.404;2022-11-20T01:45:58;4.30;99.90
13970;DHT22;7057;49.984;8.404;2022-11-20T01:48:28;4.10;99.90
13970;DHT22;7057;49.984;8.404;2022-11-20T01:50:58;4.10;99.90
13970;DHT22;7057;49.984;8.404;2022-11-20T01:53:30;4.10;99.90
13970;DHT22;7057;49.984;8.404;2022-11-20T01:56:01;4.10;99.90
13970;DHT22;7057;49.984;8.404;2022-11-20T01:58:32;4.30;99.90
13970;DHT22;7057;49.984;8.404;2022-11-20T02:01:01;4.00;99.90
13970;DHT22;7057;49.984;8.404;2022-11-20T02:03:29;3.80;99.90
13970;DHT22;7057;49.984;8.404;2022-11-20T02:06:03;3.90;99.90
13970;DHT22;7057;49.984;8.404;2022-11-20T02:08:32;3.90;99.90
13970;DHT22;7057;49.984;8.404;2022-11-20T02:11:01;4.10;99.90
13970;DHT22;7057;49.984;8.404;2022-11-20T02:13:28;4.20;99.90
13970;DHT22;7057;49.984;8.404;2022-11-20T02:16:15;4.20;99.90
13970;DHT22;7057;49.984;8.404;2022-11-20T02:18:44;4.20;99.90
13970;DHT22;7057;49.984;8.404;2022-11-20T02:21:20;4.00;99.90
13970;DHT22;7057;49.984;8.404;2022-11-20T02:24:04;3.90;99.90
13970;DHT22;7057;49.984;8.404;2022-11-20T02:26:34;3.90;99.90
13970;DHT22;7057;49.984;8.404;2022-11-20T02:29:03;4.10;99.90
13970;DHT22;7057;49.984;8.404;2022-11-20T02:31:36;4.30;99.90
13970;DHT22;7057;49.984;8.404;2022-11-20T02:34:04;4.00;99.90
13970;DHT22;7057;49.984;8.404;2022-11-20T02:36:33;4.20;99.90
13970;DHT22;7057;49.984;8.404;2022-11-20T02:39:03;4.20;99.90
13970;DHT22;7057;49.984;8.404;2022-11-20T02:41:32;4.60;99.90
13970;DHT22;7057;49.984;8.404;2022-11-20T02:44:00;4.60;99.90
13970;DHT22;7057;49.984;8.404;2022-11-20T02:46:28;4.20;99.90
13970;DHT22;7057;49.984;8.404;2022-11-20T02:48:55;4.60;99.90
13970;DHT22;7057;49.984;8.404;2022-11-20T02:51:23;4.50;99.90
13970;DHT22;7057;49.984;8.404;2022-11-20T02:53:50;4.90;99.90
13970;DHT22;7057;49.984;8.404;2022-11-20T02:56:19;4.40;99.90
13970;DHT22;7057;49.984;8.404;2022-11-20T02:58:46;4.40;99.90
13970;DHT22;7057;49.984;8.404;2022-11-20T03:01:13;4.30;99.90
13970;DHT22;7057;49.984;8.404;2022-11-20T03:03:41;4.20;99.90
13970;DHT22;7057;49.984;8.404;2022-11-20T03:06:08;4.30;99.90
13970;DHT22;7057;49.984;8.404;2022-11-20T03:08:35;4.40;99.90
13970;DHT22;7057;49.984;8.404;2022-11-20T03:11:05;4.20;99.90
13970;DHT22;7057;49.984;8.404;2022-11-20T03:13:35;4.10;99.90
13970;DHT22;7057;49.984;8.404;2022-11-20T03:16:07;4.20;99.90
13970;DHT22;7057;49.984;8.404;2022-11-20T03:18:34;4.40;99.90
13970;DHT22;7057;49.984;8.404;2022-11-20T03:21:02;4.30;99.90
13970;DHT22;7057;49.984;8.404;2022-11-20T03:23:30;4.40;99.90
13970;DHT22;7057;49.984;8.404;2022-11-20T03:26:11;4.50;99.90
13970;DHT22;7057;49.984;8.404;2022-11-20T03:28:40;4.60;99.90
13970;DHT22;7057;49.984;8.404;2022-11-20T03:31:09;5.30;99.90
13970;DHT22;7057;49.984;8.404;2022-11-20T03:33:37;5.10;99.90
13970;DHT22;7057;49.984;8.404;2022-11-20T03:36:06;4.80;99.90
13970;DHT22;7057;49.984;8.404;2022-11-20T03:38:34;4.80;99.90
13970;DHT22;7057;49.984;8.404;2022-11-20T03:41:03;4.70;99.90
13970;DHT22;7057;49.984;8.404;2022-11-20T03:43:31;4.50;99.90
13970;DHT22;7057;49.984;8.404;2022-11-20T03:46:00;4.50;99.90
13970;DHT22;7057;49.984;8.404;2022-11-20T03:48:27;4.10;99.90
13970;DHT22;7057;49.984;8.404;2022-11-20T03:51:07;3.90;99.90
13970;DHT22;7057;49.984;8.404;2022-11-20T03:53:35;4.30;99.90
13970;DHT22;7057;49.984;8.404;2022-11-20T03:56:02;4.30;99.90
13970;DHT22;7057;49.984;8.404;2022-11-20T03:58:30;4.60;99.90
13970;DHT22;7057;49.984;8.404;2022-11-20T04:00:57;4.60;99.90
13970;DHT22;7057;49.984;8.404;2022-11-20T04:03:25;4.50;99.90
13970;DHT22;7057;49.984;8.404;2022-11-20T04:05:53;4.50;99.90
13970;DHT22;7057;49.984;8.404;2022-11-20T04:08:20;4.40;99.90
13970;DHT22;7057;49.984;8.404;2022-11-20T04:10:47;4.40;99.90
13970;DHT22;7057;49.984;8.404;2022-11-20T04:13:14;4.30;99.90
13970;DHT22;7057;49.984;8.404;2022-11-20T04:15:41;4.30;99.90
13970;DHT22;7057;49.984;8.404;2022-11-20T04:18:08;4.20;99.90
13970;DHT22;7057;49.984;8.404;2022-11-20T04:20:37;4.10;99.90
13970;DHT22;7057;49.984;8.404;2022-11-20T04:23:04;4.30;99.90
13970;DHT22;7057;49.984;8.404;2022-11-20T04:25:31;4.30;99.90
13970;DHT22;7057;49.984;8.404;2022-11-20T04:27:58;4.20;99.90
13970;DHT22;7057;49.984;8.404;2022-11-20T04:30:26;4.20;99.90
13970;DHT22;7057;49.984;8.404;2022-11-20T04:32:53;4.30;99.90
13970;DHT22;7057;49.984;8.404;2022-11-20T04:35:20;4.40;99.90
13970;DHT22;7057;49.984;8.404;2022-11-20T04:37:51;4.50;99.90
13970;DHT22;7057;49.984;8.404;2022-11-20T04:40:18;4.40;99.90
13970;DHT22;7057;49.984;8.404;2022-11-20T04:42:45;4.60;99.90
13970;DHT22;7057;49.984;8.404;2022-11-20T04:45:12;4.70;99.90
13970;DHT22;7057;49.984;8.404;2022-11-20T04:47:39;4.70;99.90
13970;DHT22;7057;49.984;8.404;2022-11-20T04:50:07;5.00;99.90
13970;DHT22;7057;49.984;8.404;2022-11-20T04:52:35;4.80;99.90
13970;DHT22;7057;49.984;8.404;2022-11-20T04:55:04;4.90;99.90
13970;DHT22;7057;49.984;8.404;2022-11-20T04:57:31;5.10;99.90
13970;DHT22;7057;49.984;8.404;2022-11-20T04:59:58;5.10;99.90
13970;DHT22;7057;49.984;8.404;2022-11-20T05:02:26;4.80;99.90
13970;DHT22;7057;49.984;8.404;2022-11-20T05:04:53;4.70;99.90
13970;DHT22;7057;49.984;8.404;2022-11-20T05:07:20;4.40;99.90
13970;DHT22;7057;49.984;8.404;2022-11-20T05:09:47;4.20;99.90
13970;DHT22;7057;49.984;8.404;2022-11-20T05:12:16;4.50;99.90
13970;DHT22;7057;49.984;8.404;2022-11-20T05:14:43;3.90;99.90
13970;DHT22;7057;49.984;8.404;2022-11-20T05:17:11;4.20;99.90
13970;DHT22;7057;49.984;8.404;2022-11-20T05:19:38;3.90;99.90
13970;DHT22;7057;49.984;8.404;2022-11-20T05:22:05;4.20;99.90
13970;DHT22;7057;49.984;8.404;2022-11-20T05:24:33;4.20;99.90
13970;DHT22;7057;49.984;8.404;2022-11-20T05:27:00;4.30;99.90
13970;DHT22;7057;49.984;8.404;2022-11-20T05:29:29;4.40;99.90
13970;DHT22;7057;49.984;8.404;2022-11-20T05:31:56;4.40;99.90
13970;DHT22;7057;49.984;8.404;2022-11-20T05:34:23;4.50;99.90
13970;DHT22;7057;49.984;8.404;2022-11-20T05:36:50;4.60;99.90
13970;DHT22;7057;49.984;8.404;2022-11-20T05:39:18;4.90;99.90
13970;DHT22;7057;49.984;8.404;2022-11-20T05:41:45;4.80;99.90
13970;DHT22;7057;49.984;8.404;2022-11-20T05:44:12;5.00;99.90
13970;DHT22;7057;49.984;8.404;2022-11-20T05:46:40;4.90;99.90
13970;DHT22;7057;49.984;8.404;2022-11-20T05:49:08;4.90;99.90
13970;DHT22;7057;49.984;8.404;2022-11-20T05:51:35;4.80;99.90
13970;DHT22;7057;49.984;8.404;2022-11-20T05:54:02;4.80;99.90
13970;DHT22;7057;49.984;8.404;2022-11-20T05:56:29;5.10;99.90
13970;DHT22;7057;49.984;8.404;2022-11-20T05:58:57;4.90;99.90
13970;DHT22;7057;49.984;8.404;2022-11-20T06:01:25;5.00;99.90
13970;DHT22;7057;49.984;8.404;2022-11-20T06:03:54;5.20;99.90
13970;DHT22;7057;49.984;8.404;2022-11-20T06:06:22;5.20;99.90
13970;DHT22;7057;49.984;8.404;2022-11-20T06:08:51;5.60;99.90
13970;DHT22;7057;49.984;8.404;2022-11-20T06:11:18;4.70;99.90
13970;DHT22;7057;49.984;8.404;2022-11-20T06:13:46;4.70;99.90
13970;DHT22;7057;49.984;8.404;2022-11-20T06:16:16;4.80;99.90
13970;DHT22;7057;49.984;8.404;2022-11-20T06:18:43;5.10;99.90
13970;DHT22;7057;49.984;8.404;2022-11-20T06:21:14;5.20;99.90
13970;DHT22;7057;49.984;8.404;2022-11-20T06:23:42;5.10;99.90
13970;DHT22;7057;49.984;8.404;2022-11-20T06:26:11;5.00;99.90
13970;DHT22;7057;49.984;8.404;2022-11-20T06:28:39;5.00;99.90
13970;DHT22;7057;49.984;8.404;2022-11-20T06:31:07;5.10;99.90
13970;DHT22;7057;49.984;8.404;2022-11-20T06:33:34;4.60;99.90
13970;DHT22;7057;49.984;8.404;2022-11-20T06:36:03;4.50;99.90
13970;DHT22;7057;49.984;8.404;2022-11-20T06:38:31;4.60;99.90
13970;DHT22;7057;49.984;8.404;2022-11-20T06:40:59;4.80;99.90
13970;DHT22;7057;49.984;8.404;2022-11-20T06:43:28;4.40;99.90
13970;DHT22;7057;49.984;8.404;2022-11-20T06:45:56;4.20;99.90
13970;DHT22;7057;49.984;8.404;2022-11-20T06:48:25;3.70;99.90
13970;DHT22;7057;49.984;8.404;2022-11-20T06:50:53;3.60;99.90
13970;DHT22;7057;49.984;8.404;2022-11-20T06:53:21;3.40;99.90
13970;DHT22;7057;49.984;8.404;2022-11-20T06:55:50;3.40;99.90
13970;DHT22;7057;49.984;8.404;2022-11-20T06:58:18;3.30;99.90
13970;DHT22;7057;49.984;8.404;2022-11-20T07:00:46;3.30;99.90
13970;DHT22;7057;49.984;8.404;2022-11-20T07:03:13;3.40;99.90
13970;DHT22;7057;49.984;8.404;2022-11-20T07:05:41;3.30;99.90
13970;DHT22;7057;49.984;8.404;2022-11-20T07:08:09;3.30;99.90
13970;DHT22;7057;49.984;8.404;2022-11-20T07:10:36;4.00;99.90
13970;DHT22;7057;49.984;8.404;2022-11-20T07:13:05;3.40;99.90
13970;DHT22;7057;49.984;8.404;2022-11-20T07:15:32;2.10;99.90
13970;DHT22;7057;49.984;8.404;2022-11-20T07:18:00;3.50;99.90
13970;DHT22;7057;49.984;8.404;2022-11-20T07:20:27;3.50;99.90
13970;DHT22;7057;49.984;8.404;2022-11-20T07:22:55;3.30;99.90
13970;DHT22;7057;49.984;8.404;2022-11-20T07:25:22;3.10;99.90
13970;DHT22;7057;49.984;8.404;2022-11-20T07:27:50;3.30;99.90
13970;DHT22;7057;49.984;8.404;2022-11-20T07:30:18;3.30;99.90
13970;DHT22;7057;49.984;8.404;2022-11-20T07:32:47;3.30;99.90
13970;DHT22;7057;49.984;8.404;2022-11-20T07:35:14;3.30;99.90
13970;DHT22;7057;49.984;8.404;2022-11-20T07:37:42;3.40;99.90
13970;DHT22;7057;49.984;8.404;2022-11-20T07:40:10;3.40;99.90
13970;DHT22;7057;49.984;8.404;2022-11-20T07:42:37;3.50;99.90
13970;DHT22;7057;49.984;8.404;2022-11-20T07:45:05;3.60;99.90
13970;DHT22;7057;49.984;8.404;2022-11-20T07:47:36;3.70;99.90
13970;DHT22;7057;49.984;8.404;2022-11-20T07:50:04;3.90;99.90
13970;DHT22;7057;49.984;8.404;2022-11-20T07:52:32;3.80;99.90
13970;DHT22;7057;49.984;8.404;2022-11-20T07:54:59;4.10;99.90
13970;DHT22;7057;49.984;8.404;2022-11-20T07:57:26;3.80;99.90
13970;DHT22;7057;49.984;8.404;2022-11-20T07:59:53;3.80;99.90
13970;DHT22;7057;49.984;8.404;2022-11-20T08:02:20;4.00;99.90
13970;DHT22;7057;49.984;8.404;2022-11-20T08:04:49;3.90;99.90
13970;DHT22;7057;49.984;8.404;2022-11-20T08:07:16;4.10;99.90
13970;DHT22;7057;49.984;8.404;2022-11-20T08:09:43;4.20;99.90
13970;DHT22;7057;49.984;8.404;2022-11-20T08:12:17;4.20;99.90
13970;DHT22;7057;49.984;8.404;2022-11-20T08:15:02;4.30;99.90
13970;DHT22;7057;49.984;8.404;2022-11-20T08:17:30;4.20;99.90
13970;DHT22;7057;49.984;8.404;2022-11-20T08:19:58;4.30;99.90
13970;DHT22;7057;49.984;8.404;2022-11-20T08:22:26;4.40;99.90
13970;DHT22;7057;49.984;8.404;2022-11-20T08:24:53;4.30;99.90
13970;DHT22;7057;49.984;8.404;2022-11-20T08:27:20;4.00;99.90
13970;DHT22;7057;49.984;8.404;2022-11-20T08:29:47;4.20;99.90
13970;DHT22;7057;49.984;8.404;2022-11-20T08:32:14;4.10;99.90
13970;DHT22;7057;49.984;8.404;2022-11-20T08:34:42;3.90;99.90
13970;DHT22;7057;49.984;8.404;2022-11-20T08:37:10;3.90;99.90
13970;DHT22;7057;49.984;8.404;2022-11-20T08:39:37;3.00;99.90
13970;DHT22;7057;49.984;8.404;2022-11-20T08:42:06;4.20;99.90
13970;DHT22;7057;49.984;8.404;2022-11-20T08:44:34;4.30;99.90
13970;DHT22;7057;49.984;8.404;2022-11-20T08:47:01;4.70;99.90
13970;DHT22;7057;49.984;8.404;2022-11-20T08:49:28;4.20;99.90
13970;DHT22;7057;49.984;8.404;2022-11-20T08:51:56;4.30;99.90
13970;DHT22;7057;49.984;8.404;2022-11-20T08:54:25;4.40;99.90
13970;DHT22;7057;49.984;8.404;2022-11-20T08:56:52;4.30;99.90
13970;DHT22;7057;49.984;8.404;2022-11-20T08:59:20;4.30;99.90
13970;DHT22;7057;49.984;8.404;2022-11-20T09:01:47;4.50;99.90
13970;DHT22;7057;49.984;8.404;2022-11-20T09:04:14;3.40;99.90
13970;DHT22;7057;49.984;8.404;2022-11-20T09:06:41;4.30;99.90
13970;DHT22;7057;49.984;8.404;2022-11-20T09:09:09;4.90;99.90
13970;DHT22;7057;49.984;8.404;2022-11-20T09:11:37;4.20;99.90
13970;DHT22;7057;49.984;8.404;2022-11-20T09:14:04;4.50;99.90
13970;DHT22;7057;49.984;8.404;2022-11-20T09:16:32;4.50;99.90
13970;DHT22;7057;49.984;8.404;2022-11-20T09:18:59;4.50;99.90
13970;DHT22;7057;49.984;8.404;2022-11-20T09:21:26;4.50;99.90
13970;DHT22;7057;49.984;8.404;2022-11-20T09:23:53;4.40;99.90
13970;DHT22;7057;49.984;8.404;2022-11-20T09:26:21;4.60;99.90
13970;DHT22;7057;49.984;8.404;2022-11-20T09:28:49;4.50;99.90
13970;DHT22;7057;49.984;8.404;2022-11-20T09:31:22;4.60;99.90
13970;DHT22;7057;49.984;8.404;2022-11-20T09:33:50;4.60;99.90
13970;DHT22;7057;49.984;8.404;2022-11-20T09:36:17;4.40;99.90
13970;DHT22;7057;49.984;8.404;2022-11-20T09:38:45;4.50;99.90
13970;DHT22;7057;49.984;8.404;2022-11-20T09:41:34;5.20;99.90
13970;DHT22;7057;49.984;8.404;2022-11-20T09:44:10;4.90;99.90
13970;DHT22;7057;49.984;8.404;2022-11-20T09:46:42;5.00;99.90
13970;DHT22;7057;49.984;8.404;2022-11-20T09:49:23;5.00;99.90
13970;DHT22;7057;49.984;8.404;2022-11-20T09:51:57;5.00;99.90
13970;DHT22;7057;49.984;8.404;2022-11-20T09:54:29;5.00;99.90
13970;DHT22;7057;49.984;8.404;2022-11-20T09:57:00;5.00;99.90
13970;DHT22;7057;49.984;8.404;2022-11-20T09:59:35;5.20;99.90
13970;DHT22;7057;49.984;8.404;2022-11-20T10:02:15;5.40;99.90
13970;DHT22;7057;49.984;8.404;2022-11-20T10:04:47;5.00;99.90
13970;DHT22;7057;49.984;8.404;2022-11-20T10:07:19;5.10;99.90
13970;DHT22;7057;49.984;8.404;2022-11-20T10:09:52;5.30;99.90
13970;DHT22;7057;49.984;8.404;2022-11-20T10:12:27;5.50;99.90
13970;DHT22;7057;49.984;8.404;2022-11-20T10:15:10;5.40;99.90
13970;DHT22;7057;49.984;8.404;2022-11-20T10:18:04;5.40;99.90
13970;DHT22;7057;49.984;8.404;2022-11-20T10:20:43;5.30;99.90
13970;DHT22;7057;49.984;8.404;2022-11-20T10:23:45;5.50;99.90
13970;DHT22;7057;49.984;8.404;2022-11-20T10:26:19;5.60;99.90
13970;DHT22;7057;49.984;8.404;2022-11-20T10:29:01;5.50;99.90
13970;DHT22;7057;49.984;8.404;2022-11-20T10:31:37;5.70;99.90
13970;DHT22;7057;49.984;8.404;2022-11-20T10:34:12;5.60;99.90
13970;DHT22;7057;49.984;8.404;2022-11-20T10:36:44;5.50;99.90
13970;DHT22;7057;49.984;8.404;2022-11-20T10:39:18;5.60;99.90
13970;DHT22;7057;49.984;8.404;2022-11-20T10:41:50;5.60;99.90
13970;DHT22;7057;49.984;8.404;2022-11-20T10:44:20;5.50;99.90
13970;DHT22;7057;49.984;8.404;2022-11-20T10:47:04;5.50;99.90
13970;DHT22;7057;49.984;8.404;2022-11-20T10:49:33;5.60;99.90
13970;DHT22;7057;49.984;8.404;2022-11-20T10:52:06;5.60;99.90
13970;DHT22;7057;49.984;8.404;2022-11-20T10:54:41;5.60;99.90
13970;DHT22;7057;49.984;8.404;2022-11-20T10:57:19;5.60;99.90
13970;DHT22;7057;49.984;8.404;2022-11-20T11:00:08;5.60;99.90
13970;DHT22;7057;49.984;8.404;2022-11-20T11:02:42;4.60;99.90
13970;DHT22;7057;49.984;8.404;2022-11-20T11:05:33;5.40;99.90
13970;DHT22;7057;49.984;8.404;2022-11-20T11:08:03;5.70;99.90
13970;DHT22;7057;49.984;8.404;2022-11-20T11:10:37;5.30;99.90
13970;DHT22;7057;49.984;8.404;2022-11-20T11:13:07;4.90;99.90
13970;DHT22;7057;49.984;8.404;2022-11-20T11:15:39;5.30;99.90
13970;DHT22;7057;49.984;8.404;2022-11-20T11:18:10;5.40;99.90
13970;DHT22;7057;49.984;8.404;2022-11-20T11:20:38;5.60;99.90
13970;DHT22;7057;49.984;8.404;2022-11-20T11:23:10;5.70;99.90
13970;DHT22;7057;49.984;8.404;2022-11-20T11:25:56;5.80;99.90
13970;DHT22;7057;49.984;8.404;2022-11-20T11:28:25;5.50;99.90
13970;DHT22;7057;49.984;8.404;2022-11-20T11:30:54;5.40;99.90
13970;DHT22;7057;49.984;8.404;2022-11-20T11:33:24;5.30;99.90
13970;DHT22;7057;49.984;8.404;2022-11-20T11:35:53;5.60;99.90
13970;DHT22;7057;49.984;8.404;2022-11-20T11:38:29;5.70;99.90
13970;DHT22;7057;49.984;8.404;2022-11-20T11:40:57;5.70;99.90
13970;DHT22;7057;49.984;8.404;2022-11-20T11:43:26;5.60;99.90
13970;DHT22;7057;49.984;8.404;2022-11-20T11:46:32;5.90;99.90
13970;DHT22;7057;49.984;8.404;2022-11-20T11:49:15;7.50;99.90
13970;DHT22;7057;49.984;8.404;2022-11-20T11:51:56;6.10;99.90
13970;DHT22;7057;49.984;8.404;2022-11-20T11:54:28;6.30;99.90
13970;DHT22;7057;49.984;8.404;2022-11-20T11:57:00;6.40;99.90
13970;DHT22;7057;49.984;8.404;2022-11-20T11:59:36;6.50;99.90
13970;DHT22;7057;49.984;8.404;2022-11-20T12:02:19;6.30;99.90
13970;DHT22;7057;49.984;8.404;2022-11-20T12:04:56;6.50;99.90
13970;DHT22;7057;49.984;8.404;2022-11-20T12:07:36;6.60;99.90
13970;DHT22;7057;49.984;8.404;2022-11-20T12:10:13;6.70;99.90
13970;DHT22;7057;49.984;8.404;2022-11-20T12:12:44;6.60;99.90
13970;DHT22;7057;49.984;8.404;2022-11-20T12:15:19;6.80;99.90
13970;DHT22;7057;49.984;8.404;2022-11-20T12:17:49;7.00;99.90
13970;DHT22;7057;49.984;8.404;2022-11-20T12:20:17;7.20;99.90
13970;DHT22;7057;49.984;8.404;2022-11-20T12:22:53;5.90;99.90
13970;DHT22;7057;49.984;8.404;2022-11-20T12:25:24;7.00;99.90
13970;DHT22;7057;49.984;8.404;2022-11-20T12:31:03;6.90;99.90
13970;DHT22;7057;49.984;8.404;2022-11-20T12:33:59;6.90;99.90
13970;DHT22;7057;49.984;8.404;2022-11-20T12:36:39;7.00;99.90
13970;DHT22;7057;49.984;8.404;2022-11-20T12:39:15;6.80;99.90
13970;DHT22;7057;49.984;8.404;2022-11-20T12:41:53;6.80;99.90
13970;DHT22;7057;49.984;8.404;2022-11-20T12:45:14;6.90;99.90
13970;DHT22;7057;49.984;8.404;2022-11-20T12:50:50;6.80;99.90
13970;DHT22;7057;49.984;8.404;2022-11-20T12:53:27;6.80;99.90
13970;DHT22;7057;49.984;8.404;2022-11-20T12:56:05;6.90;99.90
13970;DHT22;7057;49.984;8.404;2022-11-20T12:58:41;6.90;99.90
13970;DHT22;7057;49.984;8.404;2022-11-20T13:01:21;6.90;99.90
13970;DHT22;7057;49.984;8.404;2022-11-20T13:04:12;6.90;99.90
13970;DHT22;7057;49.984;8.404;2022-11-20T13:06:44;6.90;99.90
13970;DHT22;7057;49.984;8.404;2022-11-20T13:09:14;7.00;99.90
13970;DHT22;7057;49.984;8.404;2022-11-20T13:11:45;7.00;99.90
13970;DHT22;7057;49.984;8.404;2022-11-20T13:14:25;7.10;99.90
13970;DHT22;7057;49.984;8.404;2022-11-20T13:16:58;7.00;99.90
13970;DHT22;7057;49.984;8.404;2022-11-20T13:19:27;7.00;99.90
13970;DHT22;7057;49.984;8.404;2022-11-20T13:21:55;7.10;99.90
13970;DHT22;7057;49.984;8.404;2022-11-20T13:24:26;7.10;99.90
13970;DHT22;7057;49.984;8.404;2022-11-20T13:27:03;7.00;99.90
13970;DHT22;7057;49.984;8.404;2022-11-20T13:29:32;6.80;99.90
13970;DHT22;7057;49.984;8.404;2022-11-20T13:32:05;6.90;99.90
13970;DHT22;7057;49.984;8.404;2022-11-20T13:34:33;6.80;99.90
13970;DHT22;7057;49.984;8.404;2022-11-20T13:39:43;6.60;99.90
13970;DHT22;7057;49.984;8.404;2022-11-20T13:42:22;6.60;99.90
13970;DHT22;7057;49.984;8.404;2022-11-20T13:44:54;6.60;99.90
13970;DHT22;7057;49.984;8.404;2022-11-20T13:47:23;6.70;99.90
13970;DHT22;7057;49.984;8.404;2022-11-20T13:49:51;6.80;99.90
13970;DHT22;7057;49.984;8.404;2022-11-20T13:52:42;6.80;99.90
13970;DHT22;7057;49.984;8.404;2022-11-20T13:55:18;6.80;99.90
13970;DHT22;7057;49.984;8.404;2022-11-20T13:58:07;6.80;99.90
13970;DHT22;7057;49.984;8.404;2022-11-20T14:00:44;6.90;99.90
13970;DHT22;7057;49.984;8.404;2022-11-20T14:03:18;7.10;99.90
13970;DHT22;7057;49.984;8.404;2022-11-20T14:05:50;7.10;99.90
13970;DHT22;7057;49.984;8.404;2022-11-20T14:08:24;7.10;99.90
13970;DHT22;7057;49.984;8.404;2022-11-20T14:11:04;7.10;99.90
13970;DHT22;7057;49.984;8.404;2022-11-20T14:13:32;7.00;99.90
13970;DHT22;7057;49.984;8.404;2022-11-20T14:15:59;7.10;99.90
13970;DHT22;7057;49.984;8.404;2022-11-20T14:18:26;7.10;99.90
13970;DHT22;7057;49.984;8.404;2022-11-20T14:20:54;7.00;99.90
13970;DHT22;7057;49.984;8.404;2022-11-20T14:23:26;7.00;99.90
13970;DHT22;7057;49.984;8.404;2022-11-20T14:25:54;7.00;99.90
13970;DHT22;7057;49.984;8.404;2022-11-20T14:28:26;7.10;99.90
13970;DHT22;7057;49.984;8.404;2022-11-20T14:30:54;7.00;99.90
13970;DHT22;7057;49.984;8.404;2022-11-20T14:33:22;6.90;99.90
13970;DHT22;7057;49.984;8.404;2022-11-20T14:35:52;6.90;99.90
13970;DHT22;7057;49.984;8.404;2022-11-20T14:38:23;6.90;99.90
13970;DHT22;7057;49.984;8.404;2022-11-20T14:40:52;6.80;99.90
13970;DHT22;7057;49.984;8.404;2022-11-20T14:43:23;6.70;99.90
13970;DHT22;7057;49.984;8.404;2022-11-20T14:45:59;6.70;99.90
13970;DHT22;7057;49.984;8.404;2022-11-20T14:48:30;6.70;99.90
13970;DHT22;7057;49.984;8.404;2022-11-20T14:50:58;6.80;99.90
13970;DHT22;7057;49.984;8.404;2022-11-20T14:53:25;6.80;99.90
13970;DHT22;7057;49.984;8.404;2022-11-20T14:55:58;6.90;99.90
13970;DHT22;7057;49.984;8.404;2022-11-20T14:58:28;6.80;99.90
13970;DHT22;7057;49.984;8.404;2022-11-20T15:00:57;6.80;99.90
13970;DHT22;7057;49.984;8.404;2022-11-20T15:03:31;6.90;99.90
13970;DHT22;7057;49.984;8.404;2022-11-20T15:05:59;6.80;99.90
13970;DHT22;7057;49.984;8.404;2022-11-20T15:08:26;6.90;99.90
13970;DHT22;7057;49.984;8.404;2022-11-20T15:10:54;6.90;99.90
13970;DHT22;7057;49.984;8.404;2022-11-20T15:13:29;6.80;99.90
13970;DHT22;7057;49.984;8.404;2022-11-20T15:15:57;6.80;99.90
13970;DHT22;7057;49.984;8.404;2022-11-20T15:18:28;6.60;99.90
13970;DHT22;7057;49.984;8.404;2022-11-20T15:20:57;6.40;99.90
13970;DHT22;7057;49.984;8.404;2022-11-20T15:23:26;6.30;99.90
13970;DHT22;7057;49.984;8.404;2022-11-20T15:25:54;6.30;99.90
13970;DHT22;7057;49.984;8.404;2022-11-20T15:28:26;6.30;99.90
13970;DHT22;7057;49.984;8.404;2022-11-20T15:30:55;6.30;99.90
13970;DHT22;7057;49.984;8.404;2022-11-20T15:33:23;6.20;99.90
13970;DHT22;7057;49.984;8.404;2022-11-20T15:35:50;6.20;99.90
13970;DHT22;7057;49.984;8.404;2022-11-20T15:38:17;6.40;99.90
13970;DHT22;7057;49.984;8.404;2022-11-20T15:40:44;6.70;99.90
13970;DHT22;7057;49.984;8.404;2022-11-20T15:43:11;6.90;99.90
13970;DHT22;7057;49.984;8.404;2022-11-20T15:45:40;7.10;99.90
13970;DHT22;7057;49.984;8.404;2022-11-20T15:48:12;7.10;99.90
13970;DHT22;7057;49.984;8.404;2022-11-20T15:50:46;7.30;99.90
13970;DHT22;7057;49.984;8.404;2022-11-20T15:53:16;7.50;99.90
13970;DHT22;7057;49.984;8.404;2022-11-20T15:55:43;7.40;99.90
13970;DHT22;7057;49.984;8.404;2022-11-20T15:58:10;7.50;99.90
13970;DHT22;7057;49.984;8.404;2022-11-20T16:00:38;7.50;99.90
13970;DHT22;7057;49.984;8.404;2022-11-20T16:03:07;7.20;99.90
13970;DHT22;7057;49.984;8.404;2022-11-20T16:05:36;7.50;99.90
13970;DHT22;7057;49.984;8.404;2022-11-20T16:08:03;7.50;99.90
13970;DHT22;7057;49.984;8.404;2022-11-20T16:10:31;7.50;99.90
13970;DHT22;7057;49.984;8.404;2022-11-20T16:12:58;7.50;99.90
13970;DHT22;7057;49.984;8.404;2022-11-20T16:15:43;7.40;99.90
13970;DHT22;7057;49.984;8.404;2022-11-20T16:18:16;7.30;99.90
13970;DHT22;7057;49.984;8.404;2022-11-20T16:20:46;7.20;99.90
13970;DHT22;7057;49.984;8.404;2022-11-20T16:23:14;7.30;99.90
13970;DHT22;7057;49.984;8.404;2022-11-20T16:25:42;7.20;99.90
13970;DHT22;7057;49.984;8.404;2022-11-20T16:28:10;7.20;99.90
13970;DHT22;7057;49.984;8.404;2022-11-20T16:30:37;7.20;99.90
13970;DHT22;7057;49.984;8.404;2022-11-20T16:33:09;7.20;99.90